createdAt,value
2022-09-17T00:01:29.788Z,98457.47
2022-09-17T00:04:00.465Z,98441.38
2022-09-17T00:06:28.030Z,98456.72
2022-09-17T00:08:55.514Z,98452.28
2022-09-17T00:11:29.380Z,98437.56
2022-09-17T00:13:59.193Z,98448.03
2022-09-17T00:16:37.269Z,98457.53
2022-09-17T00:19:06.416Z,98451.53
2022-09-17T00:21:33.576Z,98463.69
2022-09-17T00:24:03.988Z,98456.53
2022-09-17T00:26:32.374Z,98450.34
2022-09-17T00:29:00.164Z,98449.78
2022-09-17T00:31:28.562Z,98456.34
2022-09-17T00:33:56.425Z,98458.28
2022-09-17T00:36:23.880Z,98454.69
2022-09-17T00:38:52.532Z,98461.63
2022-09-17T00:41:21.168Z,98447.84
2022-09-17T00:43:51.130Z,98464.69
2022-09-17T00:46:23.273Z,98469.59
2022-09-17T00:48:54.323Z,98469.94
2022-09-17T00:51:29.015Z,98476.53
2022-09-17T00:53:56.874Z,98477.19
2022-09-17T00:56:27.966Z,98472.94
2022-09-17T00:58:55.901Z,98476.91
2022-09-17T01:01:24.004Z,98473.50
2022-09-17T01:03:51.211Z,98486.44
2022-09-17T01:06:57.585Z,98489.69
2022-09-17T01:09:33.458Z,98479.84
2022-09-17T01:12:06.933Z,98492.84
2022-09-17T01:14:37.170Z,98489.97
2022-09-17T01:17:30.270Z,98496.81
2022-09-17T01:20:45.566Z,98486.25
2022-09-17T01:23:53.747Z,98472.16
2022-09-17T01:26:33.655Z,98469.94
2022-09-17T01:29:20.942Z,98466.22
2022-09-17T01:31:54.419Z,98469.38
2022-09-17T01:34:53.946Z,98474.13
2022-09-17T01:37:56.439Z,98472.69
2022-09-17T01:40:29.793Z,98470.56
2022-09-17T01:42:59.758Z,98457.63
2022-09-17T01:45:42.459Z,98475.34
2022-09-17T01:48:17.624Z,98470.13
2022-09-17T01:50:55.829Z,98458.91
2022-09-17T01:53:29.104Z,98447.41
2022-09-17T01:56:00.026Z,98472.94
2022-09-17T01:58:32.241Z,98478.81
2022-09-17T02:01:04.065Z,98470.88
2022-09-17T02:03:37.409Z,98476.81
2022-09-17T02:06:18.569Z,98473.00
2022-09-17T02:08:51.965Z,98473.94
2022-09-17T02:11:19.980Z,98480.25
2022-09-17T02:13:54.577Z,98478.28
2022-09-17T02:16:27.751Z,98469.66
2022-09-17T02:19:02.691Z,98476.63
2022-09-17T02:21:40.167Z,98468.50
2022-09-17T02:24:17.907Z,98485.69
2022-09-17T02:26:50.507Z,98479.59
2022-09-17T02:29:27.203Z,98466.72
2022-09-17T02:31:54.467Z,98462.09
2022-09-17T02:34:22.482Z,98454.88
2022-09-17T02:36:49.634Z,98478.66
2022-09-17T02:39:17.669Z,98483.22
2022-09-17T02:41:59.859Z,98482.91
2022-09-17T02:44:45.719Z,98486.44
2022-09-17T02:47:40.139Z,98488.41
2022-09-17T02:50:22.146Z,98486.53
2022-09-17T02:52:57.988Z,98489.78
2022-09-17T02:55:34.440Z,98498.56
2022-09-17T02:58:09.701Z,98484.50
2022-09-17T03:00:37.313Z,98487.94
2022-09-17T03:03:13.903Z,98483.75
2022-09-17T03:05:42.994Z,98478.19
2022-09-17T03:08:14.464Z,98484.41
2022-09-17T03:10:41.722Z,98477.44
2022-09-17T03:13:08.914Z,98478.38
2022-09-17T03:15:36.319Z,98478.75
2022-09-17T03:18:03.667Z,98480.06
2022-09-17T03:20:30.853Z,98468.03
2022-09-17T03:22:58.211Z,98476.72
2022-09-17T03:25:25.363Z,98468.38
2022-09-17T03:27:52.564Z,98477.72
2022-09-17T03:30:20.234Z,98477.91
2022-09-17T03:32:47.503Z,98487.00
2022-09-17T03:35:14.689Z,98481.63
2022-09-17T03:37:43.170Z,98483.38
2022-09-17T03:40:10.629Z,98468.19
2022-09-17T03:42:37.879Z,98477.69
2022-09-17T03:45:05.757Z,98489.56
2022-09-17T03:47:32.899Z,98492.19
2022-09-17T03:50:00.170Z,98493.78
2022-09-17T03:52:27.544Z,98478.47
2022-09-17T03:54:54.730Z,98489.50
2022-09-17T03:57:22.926Z,98493.31
2022-09-17T03:59:50.302Z,98498.25
2022-09-17T04:02:17.507Z,98494.41
2022-09-17T04:04:44.891Z,98495.22
2022-09-17T04:07:12.276Z,98502.19
2022-09-17T04:09:39.817Z,98485.63
2022-09-17T04:12:07.140Z,98497.53
2022-09-17T04:14:34.580Z,98492.91
2022-09-17T04:17:01.759Z,98494.50
2022-09-17T04:19:28.966Z,98509.56
2022-09-17T04:21:56.321Z,98499.31
2022-09-17T04:24:23.496Z,98493.63
2022-09-17T04:26:50.646Z,98502.09
2022-09-17T04:29:18.350Z,98498.03
2022-09-17T04:31:45.873Z,98501.19
2022-09-17T04:34:13.163Z,98498.19
2022-09-17T04:36:40.520Z,98489.06
2022-09-17T04:39:08.779Z,98494.91
2022-09-17T04:41:35.933Z,98496.97
2022-09-17T04:44:03.279Z,98507.34
2022-09-17T04:46:30.510Z,98502.91
2022-09-17T04:48:57.792Z,98501.97
2022-09-17T04:51:25.475Z,98509.25
2022-09-17T04:53:52.712Z,98519.00
2022-09-17T04:56:20.536Z,98516.31
2022-09-17T04:58:47.945Z,98510.00
2022-09-17T05:01:15.338Z,98507.81
2022-09-17T05:03:42.597Z,98506.16
2022-09-17T05:06:10.064Z,98510.97
2022-09-17T05:08:37.588Z,98525.69
2022-09-17T05:11:05.171Z,98508.66
2022-09-17T05:13:32.601Z,98505.59
2022-09-17T05:15:59.784Z,98513.59
2022-09-17T05:18:26.984Z,98520.44
2022-09-17T05:20:54.388Z,98520.44
2022-09-17T05:23:21.922Z,98520.91
2022-09-17T05:25:49.202Z,98525.63
2022-09-17T05:28:16.695Z,98531.63
2022-09-17T05:30:43.890Z,98522.81
2022-09-17T05:33:11.071Z,98516.03
2022-09-17T05:35:38.422Z,98539.53
2022-09-17T05:38:07.679Z,98531.00
2022-09-17T05:40:35.358Z,98534.72
2022-09-17T05:43:06.270Z,98532.72
2022-09-17T05:45:34.856Z,98541.44
2022-09-17T05:48:03.262Z,98538.19
2022-09-17T05:50:31.527Z,98547.94
2022-09-17T05:53:05.694Z,98546.44
2022-09-17T05:55:35.018Z,98566.19
2022-09-17T05:58:12.570Z,98565.38
2022-09-17T06:00:41.256Z,98576.25
2022-09-17T06:03:13.011Z,98561.44
2022-09-17T06:05:40.972Z,98556.13
2022-09-17T06:08:09.332Z,98549.63
2022-09-17T06:10:37.637Z,98539.63
2022-09-17T06:13:05.144Z,98548.09
2022-09-17T06:15:32.507Z,98551.75
2022-09-17T06:17:59.732Z,98563.97
2022-09-17T06:20:27.051Z,98562.53
2022-09-17T06:22:59.387Z,98554.59
2022-09-17T06:25:27.082Z,98554.16
2022-09-17T06:27:54.254Z,98564.41
2022-09-17T06:30:21.656Z,98563.81
2022-09-17T06:32:48.980Z,98564.84
2022-09-17T06:35:16.185Z,98570.16
2022-09-17T06:37:43.634Z,98576.78
2022-09-17T06:40:11.261Z,98571.59
2022-09-17T06:42:38.562Z,98578.66
2022-09-17T06:45:10.161Z,98579.38
2022-09-17T06:47:39.306Z,98581.91
2022-09-17T06:50:06.889Z,98584.50
2022-09-17T06:52:34.325Z,98591.38
2022-09-17T06:55:01.473Z,98597.78
2022-09-17T06:57:28.904Z,98595.28
2022-09-17T06:59:56.078Z,98595.47
2022-09-17T07:02:23.260Z,98582.81
2022-09-17T07:04:50.620Z,98591.16
2022-09-17T07:07:17.877Z,98595.06
2022-09-17T07:09:45.057Z,98593.56
2022-09-17T07:12:12.622Z,98601.47
2022-09-17T07:14:39.740Z,98598.69
2022-09-17T07:17:07.376Z,98593.44
2022-09-17T07:19:34.925Z,98600.53
2022-09-17T07:22:02.149Z,98609.69
2022-09-17T07:24:32.754Z,98606.56
2022-09-17T07:27:01.773Z,98615.06
2022-09-17T07:29:29.015Z,98625.09
2022-09-17T07:31:56.430Z,98625.34
2022-09-17T07:34:23.965Z,98629.91
2022-09-17T07:36:51.098Z,98641.69
2022-09-17T07:39:18.239Z,98646.50
2022-09-17T07:41:45.628Z,98641.50
2022-09-17T07:44:12.822Z,98637.00
2022-09-17T07:46:40.117Z,98647.94
2022-09-17T07:49:07.565Z,98657.34
2022-09-17T07:51:34.686Z,98653.09
2022-09-17T07:54:02.472Z,98664.19
2022-09-17T07:56:30.522Z,98658.88
2022-09-17T07:58:57.717Z,98662.00
2022-09-17T08:01:25.822Z,98656.44
2022-09-17T08:03:54.624Z,98660.88
2022-09-17T08:06:26.130Z,98661.81
2022-09-17T08:08:53.656Z,98663.50
2022-09-17T08:11:55.210Z,98666.19
2022-09-17T08:14:12.747Z,98660.25
2022-09-17T08:16:40.750Z,98658.19
2022-09-17T08:19:10.627Z,98665.88
2022-09-17T08:21:38.136Z,98662.69
2022-09-17T08:24:05.718Z,98664.50
2022-09-17T08:26:32.895Z,98671.47
2022-09-17T08:29:00.225Z,98676.88
2022-09-17T08:31:30.300Z,98662.28
2022-09-17T08:33:57.955Z,98680.91
2022-09-17T08:36:26.617Z,98678.44
2022-09-17T08:38:55.659Z,98685.13
2022-09-17T08:41:42.489Z,98684.22
2022-09-17T08:44:15.827Z,98689.41
2022-09-17T08:46:47.741Z,98693.59
2022-09-17T08:49:33.209Z,98691.84
2022-09-17T08:52:22.344Z,98692.88
2022-09-17T08:55:05.341Z,98687.69
2022-09-17T08:57:59.459Z,98694.78
2022-09-17T09:00:39.103Z,98684.59
2022-09-17T09:03:23.876Z,98685.66
2022-09-17T09:05:56.506Z,98688.31
2022-09-17T09:09:08.745Z,98693.00
2022-09-17T09:11:36.512Z,98695.28
2022-09-17T09:14:10.206Z,98697.19
2022-09-17T09:16:41.620Z,98700.81
2022-09-17T09:19:27.045Z,98707.81
2022-09-17T09:22:30.425Z,98689.91
2022-09-17T09:25:23.279Z,98690.31
2022-09-17T09:28:03.299Z,98693.81
2022-09-17T09:31:12.329Z,98692.75
2022-09-17T09:33:47.602Z,98691.66
2022-09-17T09:36:21.702Z,98682.69
2022-09-17T09:39:01.824Z,98682.22
2022-09-17T09:41:29.129Z,98683.09
2022-09-17T09:44:05.310Z,98676.94
2022-09-17T09:47:07.335Z,98687.31
2022-09-17T09:49:34.654Z,98677.44
2022-09-17T09:52:07.804Z,98675.69
2022-09-17T09:54:51.810Z,98676.84
2022-09-17T09:57:32.992Z,98675.91
2022-09-17T10:00:31.261Z,98674.06
2022-09-17T10:03:16.930Z,98673.41
2022-09-17T10:06:02.824Z,98667.94
2022-09-17T10:08:33.064Z,98660.97
2022-09-17T10:11:06.771Z,98672.44
2022-09-17T10:13:36.732Z,98682.78
2022-09-17T10:16:25.394Z,98680.75
2022-09-17T10:19:14.309Z,98684.69
2022-09-17T10:21:43.123Z,98685.78
2022-09-17T10:24:27.096Z,98678.03
2022-09-17T10:27:14.107Z,98681.22
2022-09-17T10:29:51.124Z,98680.91
2022-09-17T10:32:21.441Z,98670.53
2022-09-17T10:35:04.508Z,98670.53
2022-09-17T10:37:49.791Z,98692.22
2022-09-17T10:40:20.154Z,98698.66
2022-09-17T10:43:09.073Z,98695.06
2022-09-17T10:45:39.839Z,98691.09
2022-09-17T10:48:22.924Z,98692.06
2022-09-17T10:50:53.100Z,98700.66
2022-09-17T10:53:23.371Z,98695.88
2022-09-17T10:56:02.645Z,98698.03
2022-09-17T10:58:51.346Z,98691.50
2022-09-17T11:01:47.430Z,98689.22
2022-09-17T11:04:23.829Z,98708.69
2022-09-17T11:06:56.469Z,98713.47
2022-09-17T11:09:45.382Z,98719.72
2022-09-17T11:12:20.420Z,98720.09
2022-09-17T11:14:56.952Z,98726.13
2022-09-17T11:17:39.036Z,98729.47
2022-09-17T11:20:16.171Z,98733.34
2022-09-17T11:23:01.980Z,98732.31
2022-09-17T11:25:46.255Z,98724.44
2022-09-17T11:28:41.409Z,98728.34
2022-09-17T11:31:23.233Z,98720.69
2022-09-17T11:34:05.335Z,98712.00
2022-09-17T11:36:55.366Z,98720.94
2022-09-17T11:39:45.321Z,98722.50
2022-09-17T11:42:18.203Z,98714.97
2022-09-17T11:44:52.962Z,98716.19
2022-09-17T11:47:30.806Z,98715.94
2022-09-17T11:50:07.718Z,98719.25
2022-09-17T11:52:44.438Z,98703.09
2022-09-17T11:55:43.733Z,98709.31
2022-09-17T11:58:36.958Z,98708.94
2022-09-17T12:01:11.503Z,98705.09
2022-09-17T12:04:26.900Z,98700.50
2022-09-17T12:07:02.593Z,98697.38
2022-09-17T12:09:36.826Z,98703.66
2022-09-17T12:12:26.297Z,98718.28
2022-09-17T12:15:22.660Z,98710.56
2022-09-17T12:18:20.651Z,98718.72
2022-09-17T12:20:52.022Z,98711.09
2022-09-17T12:23:31.334Z,98720.88
2022-09-17T12:26:19.792Z,98717.72
2022-09-17T12:28:54.591Z,98717.34
2022-09-17T12:31:32.886Z,98702.69
2022-09-17T12:34:42.689Z,98715.91
2022-09-17T12:37:33.155Z,98699.06
2022-09-17T12:40:29.683Z,98711.06
2022-09-17T12:43:18.798Z,98704.59
2022-09-17T12:46:15.087Z,98707.72
2022-09-17T12:48:54.306Z,98702.56
2022-09-17T12:51:40.036Z,98698.78
2022-09-17T12:54:26.118Z,98696.41
2022-09-17T12:57:05.357Z,98703.41
2022-09-17T12:59:36.155Z,98695.22
2022-09-17T13:02:43.886Z,98709.28
2022-09-17T13:05:35.737Z,98693.31
2022-09-17T13:08:30.323Z,98710.38
2022-09-17T13:11:26.798Z,98709.34
2022-09-17T13:13:56.937Z,98723.53
2022-09-17T13:16:46.689Z,98728.53
2022-09-17T13:19:39.567Z,98725.69
2022-09-17T13:22:19.404Z,98713.59
2022-09-17T13:24:49.114Z,98713.22
2022-09-17T13:27:23.539Z,98729.88
2022-09-17T13:29:53.755Z,98740.44
2022-09-17T13:32:33.330Z,98736.06
2022-09-17T13:35:06.832Z,98740.16
2022-09-17T13:37:36.497Z,98726.75
2022-09-17T13:40:04.678Z,98725.44
2022-09-17T13:42:48.229Z,98714.28
2022-09-17T13:45:18.081Z,98732.25
2022-09-17T13:47:58.727Z,98721.81
2022-09-17T13:50:32.268Z,98719.03
2022-09-17T13:53:07.363Z,98727.09
2022-09-17T13:55:53.274Z,98729.59
2022-09-17T13:58:23.302Z,98730.00
2022-09-17T14:00:58.213Z,98720.69
2022-09-17T14:03:31.557Z,98733.66
2022-09-17T14:06:19.591Z,98743.06
2022-09-17T14:08:47.416Z,98744.28
2022-09-17T14:11:24.169Z,98744.56
2022-09-17T14:14:14.446Z,98738.00
2022-09-17T14:16:47.790Z,98737.53
2022-09-17T14:19:51.474Z,98737.69
2022-09-17T14:22:29.264Z,98732.94
2022-09-17T14:24:56.534Z,98731.66
2022-09-17T14:27:45.525Z,98741.06
2022-09-17T14:30:18.500Z,98741.50
2022-09-17T14:32:54.053Z,98758.56
2022-09-17T14:35:40.777Z,98752.97
2022-09-17T14:38:20.933Z,98759.63
2022-09-17T14:40:57.770Z,98767.56
2022-09-17T14:43:54.137Z,98771.09
2022-09-17T14:46:33.207Z,98751.53
2022-09-17T14:49:23.024Z,98768.59
2022-09-17T14:51:52.346Z,98750.69
2022-09-17T14:54:29.459Z,98769.81
2022-09-17T14:57:08.604Z,98753.88
2022-09-17T14:59:54.901Z,98747.69
2022-09-17T15:02:44.938Z,98747.91
2022-09-17T15:05:28.302Z,98759.94
2022-09-17T15:08:10.426Z,98760.59
2022-09-17T15:10:49.047Z,98750.63
2022-09-17T15:13:25.443Z,98755.41
2022-09-17T15:16:01.953Z,98741.47
2022-09-17T15:18:52.478Z,98753.31
2022-09-17T15:21:41.232Z,98757.28
2022-09-17T15:24:13.739Z,98744.19
2022-09-17T15:26:43.666Z,98747.63
2022-09-17T15:29:15.013Z,98753.63
2022-09-17T15:31:42.534Z,98751.59
2022-09-17T15:34:12.933Z,98755.75
2022-09-17T15:36:40.173Z,98762.88
2022-09-17T15:39:30.448Z,98754.09
2022-09-17T15:41:57.971Z,98758.72
2022-09-17T15:44:30.411Z,98760.72
2022-09-17T15:47:36.243Z,98760.66
2022-09-17T15:50:34.471Z,98762.63
2022-09-17T15:53:10.713Z,98763.66
2022-09-17T15:55:44.675Z,98762.13
2022-09-17T15:58:36.409Z,98763.72
2022-09-17T16:01:15.686Z,98772.09
2022-09-17T16:03:46.380Z,98768.69
2022-09-17T16:06:22.579Z,98772.50
2022-09-17T16:08:57.558Z,98777.78
2022-09-17T16:11:30.670Z,98780.19
2022-09-17T16:13:59.938Z,98774.06
2022-09-17T16:16:33.580Z,98777.88
2022-09-17T16:19:01.770Z,98782.31
2022-09-17T16:21:29.298Z,98777.50
2022-09-17T16:23:58.206Z,98786.22
2022-09-17T16:26:31.505Z,98769.69
2022-09-17T16:29:05.069Z,98767.63
2022-09-17T16:31:33.202Z,98766.53
2022-09-17T16:34:01.035Z,98779.94
2022-09-17T16:36:31.203Z,98774.38
2022-09-17T16:38:59.625Z,98782.63
2022-09-17T16:41:27.452Z,98788.66
2022-09-17T16:43:54.665Z,98790.84
2022-09-17T16:46:21.914Z,98794.94
2022-09-17T16:48:52.371Z,98785.00
2022-09-17T16:51:19.849Z,98803.28
2022-09-17T16:53:47.146Z,98800.84
2022-09-17T16:56:15.741Z,98800.78
2022-09-17T16:58:43.170Z,98807.41
2022-09-17T17:01:15.483Z,98803.50
2022-09-17T17:03:45.578Z,98809.75
2022-09-17T17:06:17.479Z,98814.97
2022-09-17T17:08:45.043Z,98818.91
2022-09-17T17:11:12.473Z,98811.34
2022-09-17T17:13:41.520Z,98810.63
2022-09-17T17:16:11.689Z,98815.16
2022-09-17T17:18:39.038Z,98820.34
2022-09-17T17:21:08.103Z,98816.94
2022-09-17T17:23:35.696Z,98826.13
2022-09-17T17:26:03.807Z,98816.19
2022-09-17T17:28:32.705Z,98822.97
2022-09-17T17:31:00.129Z,98817.69
2022-09-17T17:33:27.369Z,98819.50
2022-09-17T17:35:54.538Z,98820.50
2022-09-17T17:38:21.935Z,98817.06
2022-09-17T17:40:49.067Z,98823.38
2022-09-17T17:43:16.648Z,98827.81
2022-09-17T17:45:44.038Z,98825.19
2022-09-17T17:48:11.175Z,98830.63
2022-09-17T17:50:38.344Z,98835.63
2022-09-17T17:53:05.739Z,98819.56
2022-09-17T17:55:32.894Z,98824.00
2022-09-17T17:58:01.651Z,98809.25
2022-09-17T18:00:29.388Z,98821.66
2022-09-17T18:02:57.070Z,98814.81
2022-09-17T18:05:24.354Z,98822.13
2022-09-17T18:07:51.849Z,98827.88
2022-09-17T18:10:19.830Z,98816.09
2022-09-17T18:12:50.687Z,98810.50
2022-09-17T18:15:18.322Z,98819.66
2022-09-17T18:17:48.106Z,98818.88
2022-09-17T18:20:15.627Z,98814.47
2022-09-17T18:22:43.026Z,98812.97
2022-09-17T18:25:10.561Z,98821.34
2022-09-17T18:27:37.679Z,98830.75
2022-09-17T18:30:05.652Z,98826.56
2022-09-17T18:32:32.950Z,98830.16
2022-09-17T18:35:00.118Z,98831.47
2022-09-17T18:37:29.177Z,98833.28
2022-09-17T18:39:59.087Z,98844.03
2022-09-17T18:42:26.738Z,98842.34
2022-09-17T18:44:54.175Z,98841.59
2022-09-17T18:47:21.358Z,98852.63
2022-09-17T18:49:48.705Z,98834.06
2022-09-17T18:52:16.274Z,98837.00
2022-09-17T18:54:46.076Z,98830.66
2022-09-17T18:57:13.632Z,98824.28
2022-09-17T18:59:41.145Z,98830.41
2022-09-17T19:02:12.103Z,98841.41
2022-09-17T19:04:39.494Z,98830.22
2022-09-17T19:07:07.547Z,98847.06
2022-09-17T19:09:34.837Z,98848.44
2022-09-17T19:12:02.503Z,98834.63
2022-09-17T19:14:30.072Z,98846.97
2022-09-17T19:16:57.500Z,98842.03
2022-09-17T19:19:24.743Z,98841.81
2022-09-17T19:21:52.298Z,98846.41
2022-09-17T19:24:19.489Z,98845.38
2022-09-17T19:26:50.838Z,98849.97
2022-09-17T19:29:18.433Z,98846.44
2022-09-17T19:31:45.751Z,98852.31
2022-09-17T19:34:13.268Z,98844.53
2022-09-17T19:36:40.711Z,98845.94
2022-09-17T19:39:08.154Z,98837.50
2022-09-17T19:41:36.683Z,98840.00
2022-09-17T19:44:04.304Z,98845.47
2022-09-17T19:46:32.531Z,98846.00
2022-09-17T19:49:00.668Z,98846.75
2022-09-17T19:51:29.769Z,98836.50
2022-09-17T19:53:57.386Z,98844.56
2022-09-17T19:56:27.125Z,98839.88
2022-09-17T19:58:55.259Z,98843.19
2022-09-17T20:01:22.740Z,98836.78
2022-09-17T20:03:50.046Z,98838.81
2022-09-17T20:06:20.799Z,98838.22
2022-09-17T20:08:50.333Z,98839.00
2022-09-17T20:11:21.782Z,98837.47
2022-09-17T20:13:49.368Z,98832.69
2022-09-17T20:16:20.174Z,98830.75
2022-09-17T20:18:49.160Z,98832.31
2022-09-17T20:21:25.677Z,98828.38
2022-09-17T20:23:53.597Z,98821.09
2022-09-17T20:26:21.949Z,98821.41
2022-09-17T20:28:50.507Z,98830.13
2022-09-17T20:31:20.592Z,98825.09
2022-09-17T20:33:50.972Z,98831.22
2022-09-17T20:36:20.070Z,98825.22
2022-09-17T20:41:38.078Z,98830.59
2022-09-17T20:44:07.102Z,98818.91
2022-09-17T20:46:34.657Z,98825.09
2022-09-17T20:49:02.128Z,98825.41
2022-09-17T20:51:30.593Z,98813.88
2022-09-17T20:53:58.275Z,98830.31
2022-09-17T20:56:31.778Z,98831.22
2022-09-17T20:59:08.737Z,98828.22
2022-09-17T21:01:37.999Z,98825.28
2022-09-17T21:04:08.155Z,98831.41
2022-09-17T21:06:43.692Z,98825.09
2022-09-17T21:09:15.727Z,98832.09
2022-09-17T21:11:46.785Z,98834.78
2022-09-17T21:14:18.765Z,98833.25
2022-09-17T21:16:46.628Z,98844.16
2022-09-17T21:19:16.249Z,98834.47
2022-09-17T21:21:44.796Z,98823.97
2022-09-17T21:24:12.461Z,98831.66
2022-09-17T21:26:39.877Z,98828.84
2022-09-17T21:29:08.162Z,98821.03
2022-09-17T21:31:37.186Z,98826.50
2022-09-17T21:34:07.110Z,98822.00
2022-09-17T21:36:37.087Z,98810.75
2022-09-17T21:39:16.210Z,98817.31
2022-09-17T21:41:45.437Z,98815.75
2022-09-17T21:44:13.470Z,98830.06
2022-09-17T21:46:41.815Z,98821.94
2022-09-17T21:49:09.740Z,98829.16
2022-09-17T21:51:39.967Z,98828.66
2022-09-17T21:54:12.372Z,98823.13
2022-09-17T21:56:40.114Z,98838.81
2022-09-17T21:59:10.002Z,98839.28
2022-09-17T22:01:40.576Z,98833.00
2022-09-17T22:04:19.884Z,98829.59
2022-09-17T22:06:49.653Z,98818.69
2022-09-17T22:09:23.294Z,98827.72
2022-09-17T22:11:52.025Z,98816.25
2022-09-17T22:14:21.557Z,98828.91
2022-09-17T22:16:53.014Z,98822.16
2022-09-17T22:19:22.038Z,98834.28
2022-09-17T22:21:51.450Z,98818.59
2022-09-17T22:24:20.442Z,98828.09
2022-09-17T22:26:55.774Z,98833.56
2022-09-17T22:29:24.818Z,98834.28
2022-09-17T22:31:52.181Z,98814.56
2022-09-17T22:34:22.956Z,98833.34
2022-09-17T22:36:50.606Z,98824.63
2022-09-17T22:39:23.463Z,98835.59
2022-09-17T22:41:51.221Z,98832.84
2022-09-17T22:44:19.692Z,98829.09
2022-09-17T22:46:49.878Z,98823.16
2022-09-17T22:49:18.226Z,98828.22
2022-09-17T22:51:47.252Z,98829.81
2022-09-17T22:54:16.774Z,98819.50
2022-09-17T22:56:45.129Z,98822.19
2022-09-17T22:59:12.818Z,98829.91
2022-09-17T23:01:41.019Z,98826.09
2022-09-17T23:04:08.280Z,98821.03
2022-09-17T23:06:42.311Z,98827.78
2022-09-17T23:09:12.886Z,98818.84
2022-09-17T23:11:40.372Z,98813.75
2022-09-17T23:14:10.295Z,98814.81
2022-09-17T23:16:43.209Z,98812.69
2022-09-17T23:19:12.245Z,98819.03
2022-09-17T23:21:40.007Z,98806.84
2022-09-17T23:24:07.921Z,98815.56
2022-09-17T23:26:35.794Z,98805.47
2022-09-17T23:29:05.189Z,98807.81
2022-09-17T23:31:35.176Z,98797.53
2022-09-17T23:34:04.102Z,98811.09
2022-09-17T23:36:35.142Z,98810.84
2022-09-17T23:39:03.636Z,98816.00
2022-09-17T23:41:33.071Z,98813.78
2022-09-17T23:44:02.588Z,98806.56
2022-09-17T23:46:32.400Z,98813.72
2022-09-17T23:49:00.223Z,98813.84
2022-09-17T23:51:31.046Z,98805.72
2022-09-17T23:53:59.174Z,98810.84
2022-09-17T23:56:28.696Z,98792.22
2022-09-17T23:58:59.097Z,98792.16
